Time;durP1;ratioP1;P1;durP2;ratioP2;P2;SDS_P1;SDS_P2;PMS_P1;PMS_P2;Temp;Humidity;BMP_temperature;BMP_pressure;BME280_temperature;BME280_humidity;BME280_pressure;Samples;Min_cycle;Max_cycle;Signal;HPM_P1;HPM_P2
2022/06/05 00:01:46;;;;;;;;;;;17.70;99.90;;;;;;5071418;28;20011;-68
2022/06/05 00:04:19;;;;;;;;;;;17.70;99.90;;;;;;5076403;28;19924;-69
2022/06/05 00:06:52;;;;;;;;;;;17.60;99.90;;;;;;5087739;28;19975;-69
2022/06/05 00:09:22;;;;;;;;;;;17.60;99.90;;;;;;5076939;28;20529;-68
2022/06/05 00:11:54;;;;;;;;;;;17.50;99.90;;;;;;5091162;28;19924;-68
2022/06/05 00:14:21;;;;;;;;;;;17.50;99.90;;;;;;5083095;28;20015;-68
2022/06/05 00:16:49;;;;;;;;;;;17.50;99.90;;;;;;5086899;28;19970;-68
2022/06/05 00:19:16;;;;;;;;;;;17.40;99.90;;;;;;5087989;28;20331;-68
2022/06/05 00:21:42;;;;;;;;;;;17.40;99.90;;;;;;5089333;28;19934;-68
2022/06/05 00:24:09;;;;;;;;;;;17.40;99.90;;;;;;5086851;28;19960;-68
2022/06/05 00:26:41;;;;;;;;;;;17.40;99.90;;;;;;5093580;28;20003;-68
2022/06/05 00:29:15;;;;;;;;;;;17.40;99.90;;;;;;5088082;28;19925;-68
2022/06/05 00:31:43;;;;;;;;;;;17.40;99.90;;;;;;5091677;28;20008;-68
2022/06/05 00:34:12;;;;;;;;;;;17.40;99.90;;;;;;5090578;28;19971;-67
2022/06/05 00:36:48;;;;;;;;;;;17.40;99.90;;;;;;5090856;28;20448;-68
2022/06/05 00:39:17;;;;;;;;;;;17.40;99.90;;;;;;5091786;28;19986;-68
2022/06/05 00:41:53;;;;;;;;;;;17.40;99.90;;;;;;5086619;28;20015;-68
2022/06/05 00:44:23;;;;;;;;;;;17.40;99.90;;;;;;5081963;28;20023;-67
2022/06/05 00:46:51;;;;;;;;;;;17.30;99.90;;;;;;5089506;28;20019;-68
2022/06/05 00:49:20;;;;;;;;;;;17.20;99.90;;;;;;5092275;28;19924;-67
2022/06/05 00:51:47;;;;;;;;;;;17.20;99.90;;;;;;5092271;28;19993;-68
2022/06/05 00:54:13;;;;;;;;;;;17.30;99.90;;;;;;5089358;28;19924;-68
2022/06/05 00:56:40;;;;;;;;;;;17.30;99.90;;;;;;5083697;28;19998;-68
2022/06/05 00:59:08;;;;;;;;;;;17.30;99.90;;;;;;5090060;28;19931;-68
2022/06/05 01:01:37;;;;;;;;;;;17.30;99.90;;;;;;5093072;28;19967;-68
2022/06/05 01:04:04;;;;;;;;;;;17.20;99.90;;;;;;5090678;28;20003;-68
2022/06/05 01:06:32;;;;;;;;;;;17.20;99.90;;;;;;5093376;28;20019;-67
2022/06/05 01:08:59;;;;;;;;;;;17.30;99.90;;;;;;5091755;28;19977;-68
2022/06/05 01:11:29;;;;;;;;;;;17.20;99.90;;;;;;5093935;28;19964;-67
2022/06/05 01:14:02;;;;;;;;;;;17.30;99.90;;;;;;5085216;28;19928;-68
2022/06/05 01:16:30;;;;;;;;;;;17.20;99.90;;;;;;5093351;28;19978;-68
2022/06/05 01:19:03;;;;;;;;;;;17.20;99.90;;;;;;5084187;28;19967;-68
2022/06/05 01:21:53;;;;;;;;;;;17.20;99.90;;;;;;5093350;28;19931;-68
2022/06/05 01:24:33;;;;;;;;;;;17.20;99.90;;;;;;5085682;28;19959;-67
2022/06/05 01:27:02;;;;;;;;;;;17.20;99.90;;;;;;5087233;28;19986;-68
2022/06/05 01:29:34;;;;;;;;;;;17.10;99.90;;;;;;5081584;28;20426;-68
2022/06/05 01:32:04;;;;;;;;;;;17.20;99.90;;;;;;5093235;28;19924;-68
2022/06/05 01:34:33;;;;;;;;;;;17.20;99.90;;;;;;5089189;28;19931;-68
2022/06/05 01:37:02;;;;;;;;;;;17.20;99.90;;;;;;5093079;28;19968;-69
2022/06/05 01:39:30;;;;;;;;;;;17.20;99.90;;;;;;5083699;28;19964;-69
2022/06/05 01:41:58;;;;;;;;;;;17.20;99.90;;;;;;5085862;28;20035;-68
2022/06/05 01:44:31;;;;;;;;;;;17.10;99.90;;;;;;5090364;28;20484;-68
2022/06/05 01:47:00;;;;;;;;;;;17.20;99.90;;;;;;5092223;28;19978;-67
2022/06/05 01:49:30;;;;;;;;;;;17.20;99.90;;;;;;5090103;28;20425;-68
2022/06/05 01:51:59;;;;;;;;;;;17.20;99.90;;;;;;5080360;28;20409;-68
2022/06/05 01:54:29;;;;;;;;;;;17.10;99.90;;;;;;5082270;28;20363;-67
2022/06/05 01:56:58;;;;;;;;;;;17.10;99.90;;;;;;5073377;28;20414;-69
2022/06/05 01:59:31;;;;;;;;;;;17.10;99.90;;;;;;5079799;28;20027;-70
2022/06/05 02:02:00;;;;;;;;;;;17.10;99.90;;;;;;5087888;28;20654;-68
2022/06/05 02:04:30;;;;;;;;;;;17.10;99.90;;;;;;5080734;28;20010;-68
2022/06/05 02:06:58;;;;;;;;;;;17.10;99.90;;;;;;5092955;28;19970;-68
2022/06/05 02:09:29;;;;;;;;;;;17.10;99.90;;;;;;5090702;28;20391;-68
2022/06/05 02:11:56;;;;;;;;;;;17.10;99.90;;;;;;5092462;28;20015;-69
2022/06/05 02:14:22;;;;;;;;;;;17.10;99.90;;;;;;5086163;28;20009;-69
2022/06/05 02:16:49;;;;;;;;;;;17.10;99.90;;;;;;5090074;28;20429;-69
2022/06/05 02:19:18;;;;;;;;;;;17.10;99.90;;;;;;5079319;28;19977;-69
2022/06/05 02:21:46;;;;;;;;;;;17.10;99.90;;;;;;5092704;28;20309;-69
2022/06/05 02:24:13;;;;;;;;;;;17.10;99.90;;;;;;5090524;28;20023;-68
2022/06/05 02:26:41;;;;;;;;;;;17.00;99.90;;;;;;5092413;28;20026;-69
2022/06/05 02:29:11;;;;;;;;;;;17.00;99.90;;;;;;5086448;28;19960;-68
2022/06/05 02:31:42;;;;;;;;;;;17.00;99.90;;;;;;5084661;28;19973;-69
2022/06/05 02:34:14;;;;;;;;;;;16.90;99.90;;;;;;5083889;28;19960;-69
2022/06/05 02:36:50;;;;;;;;;;;16.90;99.90;;;;;;5073031;28;19999;-69
2022/06/05 02:39:21;;;;;;;;;;;16.90;99.90;;;;;;5077346;28;20325;-69
2022/06/05 02:41:50;;;;;;;;;;;16.90;99.90;;;;;;5081989;28;20394;-68
2022/06/05 02:44:32;;;;;;;;;;;16.80;99.90;;;;;;5084484;28;20007;-69
2022/06/05 02:47:06;;;;;;;;;;;16.80;99.90;;;;;;5091539;28;19924;-69
2022/06/05 02:49:36;;;;;;;;;;;16.80;99.90;;;;;;5083481;28;19968;-69
2022/06/05 02:52:05;;;;;;;;;;;16.80;99.90;;;;;;5089074;28;19967;-69
2022/06/05 02:54:32;;;;;;;;;;;16.70;99.90;;;;;;5082671;28;20014;-69
2022/06/05 02:56:59;;;;;;;;;;;16.70;99.90;;;;;;5091540;28;19925;-69
2022/06/05 02:59:26;;;;;;;;;;;16.70;99.90;;;;;;5089096;28;19959;-68
2022/06/05 03:04:37;;;;;;;;;;;16.60;99.90;;;;;;5080343;28;19931;-68
2022/06/05 03:07:06;;;;;;;;;;;16.60;99.90;;;;;;5073979;28;20011;-69
2022/06/05 03:09:33;;;;;;;;;;;16.50;99.90;;;;;;5080439;28;19986;-68
2022/06/05 03:12:01;;;;;;;;;;;16.50;99.90;;;;;;5088346;28;19924;-68
2022/06/05 03:14:27;;;;;;;;;;;16.50;99.90;;;;;;5081394;28;20011;-67
2022/06/05 03:16:54;;;;;;;;;;;16.50;99.90;;;;;;5084112;28;19956;-67
2022/06/05 03:19:22;;;;;;;;;;;16.40;99.90;;;;;;5091306;28;20015;-69
2022/06/05 03:21:48;;;;;;;;;;;16.50;99.90;;;;;;5083996;28;19976;-67
2022/06/05 03:24:17;;;;;;;;;;;16.40;99.90;;;;;;5076065;28;19967;-68
2022/06/05 03:26:43;;;;;;;;;;;16.40;99.90;;;;;;5089487;28;19931;-68
2022/06/05 03:29:10;;;;;;;;;;;16.40;99.90;;;;;;5084844;28;20015;-68
2022/06/05 03:31:37;;;;;;;;;;;16.40;99.90;;;;;;5085606;28;19924;-68
2022/06/05 03:34:04;;;;;;;;;;;16.40;99.90;;;;;;5090384;28;20065;-67
2022/06/05 03:36:31;;;;;;;;;;;16.40;99.90;;;;;;5089385;28;20363;-69
2022/06/05 03:38:57;;;;;;;;;;;16.40;99.90;;;;;;5073986;28;20382;-68
2022/06/05 03:41:26;;;;;;;;;;;16.40;99.90;;;;;;5091310;28;20007;-68
2022/06/05 03:43:52;;;;;;;;;;;16.40;99.90;;;;;;5088955;28;19930;-68
2022/06/05 03:46:19;;;;;;;;;;;16.40;99.90;;;;;;5090482;28;19924;-68
2022/06/05 03:48:46;;;;;;;;;;;16.40;99.90;;;;;;5088182;28;19924;-68
2022/06/05 03:51:13;;;;;;;;;;;16.40;99.90;;;;;;5090488;28;20621;-67
2022/06/05 03:53:40;;;;;;;;;;;16.40;99.90;;;;;;5086718;28;19967;-68
2022/06/05 03:56:10;;;;;;;;;;;16.40;99.90;;;;;;5090701;28;20294;-68
2022/06/05 03:58:39;;;;;;;;;;;16.30;99.90;;;;;;5091175;28;19975;-69
2022/06/05 04:01:07;;;;;;;;;;;16.40;99.90;;;;;;5077018;28;19932;-69
2022/06/05 04:03:34;;;;;;;;;;;16.40;99.90;;;;;;5092251;28;19990;-69
2022/06/05 04:06:01;;;;;;;;;;;16.40;99.90;;;;;;5093231;28;19946;-69
2022/06/05 04:08:27;;;;;;;;;;;16.40;99.90;;;;;;5092863;28;20015;-69
2022/06/05 04:10:54;;;;;;;;;;;16.40;99.90;;;;;;5093892;28;20002;-69
2022/06/05 04:13:21;;;;;;;;;;;16.30;99.90;;;;;;5094323;28;19924;-69
2022/06/05 04:15:49;;;;;;;;;;;16.30;99.90;;;;;;5092809;28;20018;-69
2022/06/05 04:18:15;;;;;;;;;;;16.40;99.90;;;;;;5089708;28;19960;-69
2022/06/05 04:20:42;;;;;;;;;;;16.40;99.90;;;;;;5090261;28;19924;-69
2022/06/05 04:23:10;;;;;;;;;;;16.40;99.90;;;;;;5076422;28;20011;-69
2022/06/05 04:25:37;;;;;;;;;;;16.40;99.90;;;;;;5090514;28;20330;-69
2022/06/05 04:28:04;;;;;;;;;;;16.40;99.90;;;;;;5094089;28;19928;-67
2022/06/05 04:30:31;;;;;;;;;;;16.40;99.90;;;;;;5090236;28;19925;-67
2022/06/05 04:32:59;;;;;;;;;;;16.40;99.90;;;;;;5095157;28;20006;-67
2022/06/05 04:35:26;;;;;;;;;;;16.40;99.90;;;;;;5088884;28;19924;-68
2022/06/05 04:37:52;;;;;;;;;;;16.40;99.90;;;;;;5094340;28;19967;-68
2022/06/05 04:40:19;;;;;;;;;;;16.40;99.90;;;;;;5092052;28;20019;-68
2022/06/05 04:42:46;;;;;;;;;;;16.40;99.90;;;;;;5091993;28;19970;-68
2022/06/05 04:45:12;;;;;;;;;;;16.40;99.90;;;;;;5090922;28;20027;-67
2022/06/05 04:47:40;;;;;;;;;;;16.40;99.90;;;;;;5094157;28;20418;-68
2022/06/05 04:50:09;;;;;;;;;;;16.40;99.90;;;;;;5091061;28;19978;-67
2022/06/05 04:52:35;;;;;;;;;;;16.40;99.90;;;;;;5090440;28;19967;-68
2022/06/05 04:55:02;;;;;;;;;;;16.40;99.90;;;;;;5084586;28;20019;-68
2022/06/05 04:57:29;;;;;;;;;;;16.50;99.90;;;;;;5088350;28;19928;-68
2022/06/05 04:59:56;;;;;;;;;;;16.50;99.90;;;;;;5092840;28;19978;-68
2022/06/05 05:02:22;;;;;;;;;;;16.60;99.90;;;;;;5093173;28;20015;-68
2022/06/05 05:04:49;;;;;;;;;;;16.60;99.90;;;;;;5092183;28;19973;-67
2022/06/05 05:07:17;;;;;;;;;;;16.60;99.90;;;;;;5094787;28;19930;-68
2022/06/05 05:09:44;;;;;;;;;;;16.60;99.90;;;;;;5090109;28;19925;-68
2022/06/05 05:12:11;;;;;;;;;;;16.60;99.90;;;;;;5093477;28;20015;-68
2022/06/05 05:14:39;;;;;;;;;;;16.70;99.90;;;;;;5082632;28;20383;-68
2022/06/05 05:17:06;;;;;;;;;;;16.70;99.90;;;;;;5081267;28;20405;-68
2022/06/05 05:19:32;;;;;;;;;;;16.70;99.90;;;;;;5091464;28;20376;-68
2022/06/05 05:21:59;;;;;;;;;;;16.80;99.90;;;;;;5084289;28;19925;-68
2022/06/05 05:24:27;;;;;;;;;;;16.80;99.90;;;;;;5082453;28;20451;-68
2022/06/05 05:26:54;;;;;;;;;;;16.80;99.90;;;;;;5093631;28;19947;-68
2022/06/05 05:29:21;;;;;;;;;;;16.80;99.90;;;;;;5092480;28;19924;-68
2022/06/05 05:31:48;;;;;;;;;;;16.80;99.90;;;;;;5082342;28;20012;-69
2022/06/05 05:34:15;;;;;;;;;;;16.90;99.90;;;;;;5077971;28;19924;-68
2022/06/05 05:36:42;;;;;;;;;;;16.90;99.90;;;;;;5091562;28;19928;-68
2022/06/05 05:42:07;;;;;;;;;;;17.00;99.90;;;;;;5091338;28;20539;-68
2022/06/05 05:44:35;;;;;;;;;;;17.00;99.90;;;;;;5083240;28;20479;-68
2022/06/05 05:47:02;;;;;;;;;;;17.10;99.90;;;;;;5073836;28;19928;-69
2022/06/05 05:49:29;;;;;;;;;;;17.10;99.90;;;;;;5086612;28;20070;-68
2022/06/05 05:51:55;;;;;;;;;;;17.20;99.90;;;;;;5083582;28;20007;-68
2022/06/05 05:54:22;;;;;;;;;;;17.20;99.90;;;;;;5087613;28;20006;-68
2022/06/05 05:56:51;;;;;;;;;;;17.30;99.90;;;;;;5092598;28;19924;-68
2022/06/05 05:59:19;;;;;;;;;;;17.30;99.90;;;;;;5085881;28;20019;-68
2022/06/05 06:01:47;;;;;;;;;;;17.30;99.90;;;;;;5080593;28;19924;-68
2022/06/05 06:04:14;;;;;;;;;;;17.40;99.90;;;;;;5086721;28;19974;-69
2022/06/05 06:06:41;;;;;;;;;;;17.50;99.90;;;;;;5093002;28;20319;-67
2022/06/05 06:09:08;;;;;;;;;;;17.50;99.90;;;;;;5085920;28;19959;-68
2022/06/05 06:11:35;;;;;;;;;;;17.50;99.90;;;;;;5080641;28;20011;-69
2022/06/05 06:14:02;;;;;;;;;;;17.60;99.90;;;;;;5087132;28;19969;-68
2022/06/05 06:16:30;;;;;;;;;;;17.80;99.90;;;;;;5075964;28;19931;-68
2022/06/05 06:18:57;;;;;;;;;;;17.80;99.90;;;;;;5080060;28;19955;-68
2022/06/05 06:21:24;;;;;;;;;;;18.00;99.90;;;;;;5088169;28;19924;-68
2022/06/05 06:23:51;;;;;;;;;;;18.20;99.90;;;;;;5087560;28;20018;-69
2022/06/05 06:26:18;;;;;;;;;;;18.30;99.90;;;;;;5091266;28;19924;-69
2022/06/05 06:28:45;;;;;;;;;;;18.50;99.90;;;;;;5091233;28;19924;-69
2022/06/05 06:31:13;;;;;;;;;;;18.80;99.90;;;;;;5092395;28;19931;-70
2022/06/05 06:33:41;;;;;;;;;;;19.30;99.90;;;;;;5087625;28;19960;-69
2022/06/05 06:36:08;;;;;;;;;;;19.70;99.90;;;;;;5087365;28;19975;-69
2022/06/05 06:38:35;;;;;;;;;;;20.30;99.90;;;;;;5076050;28;19969;-69
2022/06/05 06:41:03;;;;;;;;;;;20.80;99.90;;;;;;5081267;28;20390;-69
2022/06/05 06:43:30;;;;;;;;;;;21.80;99.90;;;;;;5090624;28;20018;-69
2022/06/05 06:45:56;;;;;;;;;;;21.90;99.90;;;;;;5088342;28;19970;-69
2022/06/05 06:48:23;;;;;;;;;;;22.00;99.90;;;;;;5087734;28;19978;-69
2022/06/05 06:50:52;;;;;;;;;;;21.80;99.90;;;;;;5078363;28;20366;-69
2022/06/05 06:53:19;;;;;;;;;;;21.60;99.90;;;;;;5085151;28;19928;-69
2022/06/05 06:55:46;;;;;;;;;;;21.60;99.90;;;;;;5086073;28;20011;-69
2022/06/05 06:58:12;;;;;;;;;;;21.40;99.90;;;;;;5088898;28;20015;-69
2022/06/05 07:00:39;;;;;;;;;;;22.50;99.90;;;;;;5088992;28;20367;-68
2022/06/05 07:03:06;;;;;;;;;;;23.40;97.20;;;;;;5084103;28;20015;-68
2022/06/05 07:05:33;;;;;;;;;;;24.40;94.30;;;;;;5087667;28;20018;-68
2022/06/05 07:08:02;;;;;;;;;;;25.10;90.10;;;;;;5088253;28;20012;-68
2022/06/05 07:10:28;;;;;;;;;;;25.60;85.40;;;;;;5085085;28;20044;-68
2022/06/05 07:12:55;;;;;;;;;;;25.80;76.80;;;;;;5071841;28;19924;-68
2022/06/05 07:15:22;;;;;;;;;;;24.90;79.00;;;;;;5082972;28;20007;-69
2022/06/05 07:17:48;;;;;;;;;;;24.00;84.60;;;;;;5074012;28;19957;-68
2022/06/05 07:20:15;;;;;;;;;;;24.20;85.10;;;;;;5087256;28;20975;-68
2022/06/05 07:22:42;;;;;;;;;;;23.60;85.20;;;;;;5071417;28;19934;-68
2022/06/05 07:25:10;;;;;;;;;;;23.10;91.60;;;;;;5084393;28;20015;-68
2022/06/05 07:27:37;;;;;;;;;;;23.50;90.00;;;;;;5080164;28;19924;-68
2022/06/05 07:30:04;;;;;;;;;;;23.20;90.10;;;;;;5071713;28;20019;-68
2022/06/05 07:32:32;;;;;;;;;;;22.80;91.80;;;;;;5090621;28;19924;-68
2022/06/05 07:34:58;;;;;;;;;;;21.80;93.80;;;;;;5083457;28;19924;-68
2022/06/05 07:37:25;;;;;;;;;;;21.60;96.40;;;;;;5073607;28;19976;-68
2022/06/05 07:39:52;;;;;;;;;;;21.60;96.60;;;;;;5086077;28;20399;-68
2022/06/05 07:42:20;;;;;;;;;;;21.40;97.40;;;;;;5090545;28;19924;-68
2022/06/05 07:44:46;;;;;;;;;;;21.30;98.30;;;;;;5089532;28;20355;-69
2022/06/05 07:47:13;;;;;;;;;;;21.20;98.60;;;;;;5090676;28;19977;-67
2022/06/05 07:49:40;;;;;;;;;;;21.20;98.90;;;;;;5078966;28;19924;-67
2022/06/05 07:54:52;;;;;;;;;;;20.90;99.30;;;;;;5079576;28;19940;-68
2022/06/05 07:57:20;;;;;;;;;;;21.00;99.90;;;;;;5090968;28;20018;-67
2022/06/05 07:59:47;;;;;;;;;;;21.00;99.90;;;;;;5088214;28;19985;-68
2022/06/05 08:02:15;;;;;;;;;;;20.90;99.90;;;;;;5088374;28;20385;-67
2022/06/05 08:04:42;;;;;;;;;;;20.90;99.90;;;;;;5086613;28;20018;-67
2022/06/05 08:07:10;;;;;;;;;;;20.90;99.90;;;;;;5091021;28;20336;-68
2022/06/05 08:09:37;;;;;;;;;;;20.70;99.90;;;;;;5080421;28;20362;-68
2022/06/05 08:12:04;;;;;;;;;;;21.00;99.90;;;;;;5071533;28;20410;-67
2022/06/05 08:14:35;;;;;;;;;;;21.40;99.60;;;;;;5079847;28;19964;-68
2022/06/05 08:17:03;;;;;;;;;;;21.30;99.40;;;;;;5091246;28;19924;-68
2022/06/05 08:19:31;;;;;;;;;;;21.40;99.70;;;;;;5079607;28;19924;-68
2022/06/05 08:21:57;;;;;;;;;;;22.20;97.60;;;;;;5079678;28;19928;-68
2022/06/05 08:24:24;;;;;;;;;;;22.60;96.20;;;;;;5078477;28;20018;-68
2022/06/05 08:26:51;;;;;;;;;;;22.60;95.30;;;;;;5091200;28;19924;-68
2022/06/05 08:29:18;;;;;;;;;;;23.00;95.30;;;;;;5085201;28;19931;-67
2022/06/05 08:31:47;;;;;;;;;;;23.00;94.00;;;;;;5088917;28;19991;-68
2022/06/05 08:34:14;;;;;;;;;;;22.30;94.70;;;;;;5084380;28;19932;-67
2022/06/05 08:36:41;;;;;;;;;;;21.90;95.90;;;;;;5084728;28;19986;-68
2022/06/05 08:41:58;;;;;;;;;;;21.40;97.60;;;;;;5067088;28;19936;-68
2022/06/05 08:44:32;;;;;;;;;;;21.20;97.50;;;;;;5088190;28;20276;-67
2022/06/05 08:47:03;;;;;;;;;;;21.20;98.60;;;;;;5082482;28;19924;-67
2022/06/05 08:49:34;;;;;;;;;;;21.10;98.50;;;;;;5083321;28;20011;-68
2022/06/05 08:52:04;;;;;;;;;;;21.00;98.90;;;;;;5074541;28;19971;-68
2022/06/05 08:54:35;;;;;;;;;;;21.00;99.30;;;;;;5074520;28;20080;-68
2022/06/05 08:57:03;;;;;;;;;;;20.90;99.50;;;;;;5074072;28;20010;-67
2022/06/05 08:59:32;;;;;;;;;;;20.70;99.90;;;;;;5082613;28;19931;-68
2022/06/05 09:02:03;;;;;;;;;;;20.20;99.90;;;;;;5075225;28;19968;-68
2022/06/05 09:04:39;;;;;;;;;;;19.80;99.90;;;;;;5085850;28;19970;-68
2022/06/05 09:07:10;;;;;;;;;;;19.40;99.90;;;;;;5075272;28;20391;-69
2022/06/05 09:09:40;;;;;;;;;;;19.20;99.90;;;;;;5076285;28;19924;-68
2022/06/05 09:12:10;;;;;;;;;;;19.20;99.90;;;;;;5074276;28;19983;-68
2022/06/05 09:14:39;;;;;;;;;;;19.30;99.90;;;;;;5074352;28;19924;-68
2022/06/05 09:17:10;;;;;;;;;;;19.40;99.90;;;;;;5074174;28;20371;-68
2022/06/05 09:19:37;;;;;;;;;;;19.40;99.90;;;;;;5074042;28;20027;-68
2022/06/05 09:22:06;;;;;;;;;;;19.30;99.90;;;;;;5073845;28;19928;-69
2022/06/05 09:24:37;;;;;;;;;;;19.30;99.90;;;;;;5082800;28;20006;-68
2022/06/05 09:27:22;;;;;;;;;;;19.40;99.90;;;;;;5094627;28;20011;-68
2022/06/05 09:29:52;;;;;;;;;;;19.70;99.90;;;;;;5081782;28;20008;-69
2022/06/05 09:32:32;;;;;;;;;;;19.50;99.90;;;;;;5082169;28;20299;-68
2022/06/05 09:35:02;;;;;;;;;;;19.50;99.90;;;;;;5085685;28;19924;-68
2022/06/05 09:37:31;;;;;;;;;;;19.50;99.90;;;;;;5077580;28;19932;-68
2022/06/05 09:39:59;;;;;;;;;;;19.70;99.90;;;;;;5093559;28;20026;-68
2022/06/05 09:42:36;;;;;;;;;;;19.80;99.90;;;;;;5084818;28;20015;-69
2022/06/05 09:45:07;;;;;;;;;;;19.60;99.90;;;;;;5084923;28;20375;-69
2022/06/05 09:47:39;;;;;;;;;;;19.50;99.90;;;;;;5091343;28;19928;-68
2022/06/05 09:50:12;;;;;;;;;;;19.40;99.90;;;;;;5078151;28;19967;-68
2022/06/05 09:52:40;;;;;;;;;;;19.40;99.90;;;;;;5072864;28;19971;-68
2022/06/05 09:55:11;;;;;;;;;;;19.30;99.90;;;;;;5084383;28;20007;-69
2022/06/05 10:00:31;;;;;;;;;;;19.30;99.90;;;;;;5083099;28;19931;-68
2022/06/05 10:03:00;;;;;;;;;;;19.30;99.90;;;;;;5081567;28;19970;-67
2022/06/05 10:05:28;;;;;;;;;;;19.40;99.90;;;;;;5085878;28;19924;-67
2022/06/05 10:07:58;;;;;;;;;;;19.20;99.90;;;;;;5088876;28;19925;-68
2022/06/05 10:10:26;;;;;;;;;;;18.90;99.90;;;;;;5086952;28;19969;-67
2022/06/05 10:12:55;;;;;;;;;;;18.80;99.90;;;;;;5072026;28;19970;-67
2022/06/05 10:15:24;;;;;;;;;;;18.70;99.90;;;;;;5086087;28;19977;-67
2022/06/05 10:17:51;;;;;;;;;;;18.70;99.90;;;;;;5091372;28;20395;-67
2022/06/05 10:20:29;;;;;;;;;;;18.70;99.90;;;;;;5089956;28;19932;-67
2022/06/05 10:22:59;;;;;;;;;;;18.80;99.90;;;;;;5090942;28;20047;-68
2022/06/05 10:25:28;;;;;;;;;;;18.70;99.90;;;;;;5079804;28;20026;-68
2022/06/05 10:27:55;;;;;;;;;;;18.60;99.90;;;;;;5088150;28;19931;-68
2022/06/05 10:30:26;;;;;;;;;;;18.60;99.90;;;;;;5071904;28;20011;-68
2022/06/05 10:32:57;;;;;;;;;;;18.70;99.90;;;;;;5083932;28;20419;-68
2022/06/05 10:35:25;;;;;;;;;;;18.70;99.90;;;;;;5083163;28;19928;-68
2022/06/05 10:37:57;;;;;;;;;;;18.70;99.90;;;;;;5077298;28;19935;-68
2022/06/05 10:40:28;;;;;;;;;;;18.80;99.90;;;;;;5076131;28;19924;-68
2022/06/05 10:42:56;;;;;;;;;;;18.80;99.90;;;;;;5086016;28;20114;-69
2022/06/05 10:45:39;;;;;;;;;;;18.80;99.90;;;;;;5081543;28;19931;-69
2022/06/05 10:48:10;;;;;;;;;;;18.70;99.90;;;;;;5080863;28;19928;-69
2022/06/05 10:50:38;;;;;;;;;;;18.80;99.90;;;;;;5082543;28;19967;-68
2022/06/05 10:53:11;;;;;;;;;;;18.70;99.90;;;;;;5076962;28;20390;-67
2022/06/05 10:55:42;;;;;;;;;;;18.70;99.90;;;;;;5072063;28;19935;-68
2022/06/05 10:58:13;;;;;;;;;;;18.70;99.90;;;;;;5083378;28;20396;-69
2022/06/05 11:00:52;;;;;;;;;;;18.70;99.90;;;;;;5073733;28;19924;-68
2022/06/05 11:03:21;;;;;;;;;;;18.70;99.90;;;;;;5078887;28;19951;-68
2022/06/05 11:05:54;;;;;;;;;;;18.70;99.90;;;;;;5075118;28;19976;-67
2022/06/05 11:08:27;;;;;;;;;;;18.70;99.90;;;;;;5070508;28;19924;-68
2022/06/05 11:13:49;;;;;;;;;;;18.50;99.90;;;;;;5072529;28;19932;-68
2022/06/05 11:16:23;;;;;;;;;;;18.40;99.90;;;;;;5083048;28;19924;-67
2022/06/05 11:18:53;;;;;;;;;;;18.40;99.90;;;;;;5084486;28;20373;-66
2022/06/05 11:21:22;;;;;;;;;;;18.40;99.90;;;;;;5077920;28;20310;-68
2022/06/05 11:23:51;;;;;;;;;;;18.40;99.90;;;;;;5073421;28;19978;-67
2022/06/05 11:26:21;;;;;;;;;;;18.40;99.90;;;;;;5079096;28;19931;-68
2022/06/05 11:28:53;;;;;;;;;;;18.30;99.90;;;;;;5070886;28;19924;-67
2022/06/05 11:31:30;;;;;;;;;;;18.20;99.90;;;;;;5072564;28;20027;-66
2022/06/05 11:33:58;;;;;;;;;;;18.20;99.90;;;;;;5083418;28;20004;-68
2022/06/05 11:36:27;;;;;;;;;;;18.30;99.90;;;;;;5091063;28;19928;-68
2022/06/05 11:39:11;;;;;;;;;;;18.20;99.90;;;;;;5085556;28;19971;-68
2022/06/05 11:41:42;;;;;;;;;;;18.10;99.90;;;;;;5075163;28;19954;-69
2022/06/05 11:44:31;;;;;;;;;;;18.10;99.90;;;;;;5089809;28;19931;-69
2022/06/05 11:47:02;;;;;;;;;;;18.20;99.90;;;;;;5090157;28;19967;-69
2022/06/05 11:49:36;;;;;;;;;;;18.20;99.90;;;;;;5089833;28;20010;-69
2022/06/05 11:52:05;;;;;;;;;;;18.00;99.90;;;;;;5088678;28;19924;-69
2022/06/05 11:54:41;;;;;;;;;;;17.90;99.90;;;;;;5089034;28;20003;-69
2022/06/05 11:57:13;;;;;;;;;;;17.80;99.90;;;;;;5091985;28;19992;-69
2022/06/05 11:59:44;;;;;;;;;;;17.70;99.90;;;;;;5085479;28;19966;-69
2022/06/05 12:02:29;;;;;;;;;;;17.70;99.90;;;;;;5092002;28;19930;-69
2022/06/05 12:04:59;;;;;;;;;;;17.60;99.90;;;;;;5087087;28;19924;-69
2022/06/05 12:07:26;;;;;;;;;;;17.70;99.90;;;;;;5088762;28;20261;-69
2022/06/05 12:09:57;;;;;;;;;;;17.80;99.90;;;;;;5087293;28;19968;-68
2022/06/05 12:12:25;;;;;;;;;;;17.70;99.90;;;;;;5075747;28;20443;-68
2022/06/05 12:14:57;;;;;;;;;;;17.60;99.90;;;;;;5081111;28;20339;-68
2022/06/05 12:17:27;;;;;;;;;;;17.50;99.90;;;;;;5083708;28;19975;-68
2022/06/05 12:19:59;;;;;;;;;;;17.50;99.90;;;;;;5088623;28;20018;-68
2022/06/05 12:22:28;;;;;;;;;;;17.40;99.90;;;;;;5084739;28;19924;-66
2022/06/05 12:24:59;;;;;;;;;;;17.40;99.90;;;;;;5083419;28;21768;-66
2022/06/05 12:27:40;;;;;;;;;;;17.40;99.90;;;;;;5085347;28;19934;-65
2022/06/05 12:30:08;;;;;;;;;;;17.40;99.90;;;;;;5090889;28;20055;-67
2022/06/05 12:32:38;;;;;;;;;;;17.30;99.90;;;;;;5083340;28;19925;-66
2022/06/05 12:35:07;;;;;;;;;;;17.30;99.90;;;;;;5084353;28;20015;-67
2022/06/05 12:37:37;;;;;;;;;;;17.40;99.90;;;;;;5081391;28;19975;-66
2022/06/05 12:40:15;;;;;;;;;;;17.40;99.90;;;;;;5078511;28;19924;-66
2022/06/05 12:42:45;;;;;;;;;;;17.40;99.90;;;;;;5082047;28;19929;-66
2022/06/05 12:45:17;;;;;;;;;;;17.40;99.90;;;;;;5076735;28;19928;-66
2022/06/05 12:47:51;;;;;;;;;;;17.40;99.90;;;;;;5072550;28;20374;-66
2022/06/05 12:50:36;;;;;;;;;;;17.50;99.90;;;;;;5074119;28;19924;-66
2022/06/05 12:53:09;;;;;;;;;;;17.60;99.90;;;;;;5073221;28;20410;-66
2022/06/05 12:55:38;;;;;;;;;;;17.70;99.90;;;;;;5073787;28;20011;-66
2022/06/05 12:58:12;;;;;;;;;;;17.80;99.90;;;;;;5080789;28;20084;-65
2022/06/05 13:00:44;;;;;;;;;;;17.90;99.90;;;;;;5087425;28;20015;-66
2022/06/05 13:03:18;;;;;;;;;;;17.90;99.90;;;;;;5083862;28;19967;-65
2022/06/05 13:05:47;;;;;;;;;;;18.00;99.90;;;;;;5092950;28;19935;-65
2022/06/05 13:08:19;;;;;;;;;;;18.00;99.90;;;;;;5074089;28;20014;-65
2022/06/05 13:10:51;;;;;;;;;;;18.10;99.90;;;;;;5074017;28;20458;-65
2022/06/05 13:13:24;;;;;;;;;;;18.30;99.90;;;;;;5088831;28;19940;-66
2022/06/05 13:15:52;;;;;;;;;;;18.20;99.90;;;;;;5072693;28;19924;-66
2022/06/05 13:18:24;;;;;;;;;;;18.20;99.90;;;;;;5091180;28;20430;-67
2022/06/05 13:20:57;;;;;;;;;;;18.20;99.90;;;;;;5088079;28;19924;-66
2022/06/05 13:23:29;;;;;;;;;;;18.20;99.90;;;;;;5083005;28;19924;-65
2022/06/05 13:26:01;;;;;;;;;;;18.20;99.90;;;;;;5080810;28;19931;-66
2022/06/05 13:28:35;;;;;;;;;;;18.30;99.90;;;;;;5079433;28;19928;-67
2022/06/05 13:31:06;;;;;;;;;;;18.40;99.90;;;;;;5079157;28;20371;-66
2022/06/05 13:33:37;;;;;;;;;;;18.50;99.90;;;;;;5076450;28;19924;-68
2022/06/05 13:36:07;;;;;;;;;;;18.60;99.90;;;;;;5088596;28;19924;-66
2022/06/05 13:38:42;;;;;;;;;;;18.60;99.90;;;;;;5088855;28;20386;-66
2022/06/05 13:41:16;;;;;;;;;;;18.60;99.90;;;;;;5088134;28;19971;-66
2022/06/05 13:43:48;;;;;;;;;;;18.60;99.90;;;;;;5086437;28;19924;-65
2022/06/05 13:46:21;;;;;;;;;;;18.60;99.90;;;;;;5089937;28;20399;-67
2022/06/05 13:48:51;;;;;;;;;;;18.50;99.90;;;;;;5076134;28;19924;-66
2022/06/05 13:51:26;;;;;;;;;;;18.50;99.90;;;;;;5081992;28;20328;-68
2022/06/05 13:54:04;;;;;;;;;;;18.40;99.90;;;;;;5082316;28;20043;-67
2022/06/05 13:56:38;;;;;;;;;;;18.30;99.90;;;;;;5088235;28;19955;-68
2022/06/05 13:59:11;;;;;;;;;;;18.40;99.90;;;;;;5086676;28;19931;-67
2022/06/05 14:01:39;;;;;;;;;;;18.40;99.90;;;;;;5087342;28;19935;-67
2022/06/05 14:04:18;;;;;;;;;;;18.50;99.90;;;;;;5073055;28;19924;-67
2022/06/05 14:06:48;;;;;;;;;;;18.50;99.90;;;;;;5072115;28;20023;-67
2022/06/05 14:09:30;;;;;;;;;;;18.50;99.90;;;;;;5079321;28;19924;-68
2022/06/05 14:11:58;;;;;;;;;;;18.50;99.90;;;;;;5086858;28;19925;-67
2022/06/05 14:14:35;;;;;;;;;;;18.50;99.90;;;;;;5090122;28;19959;-67
2022/06/05 14:17:03;;;;;;;;;;;18.40;99.90;;;;;;5082229;28;20395;-67
2022/06/05 14:19:33;;;;;;;;;;;18.40;99.90;;;;;;5079264;28;19974;-67
2022/06/05 14:22:01;;;;;;;;;;;18.40;99.90;;;;;;5090182;28;19924;-68
2022/06/05 14:24:30;;;;;;;;;;;18.30;99.90;;;;;;5090663;28;19971;-67
2022/06/05 14:26:58;;;;;;;;;;;18.40;99.90;;;;;;5081043;28;19936;-67
2022/06/05 14:29:28;;;;;;;;;;;18.50;99.90;;;;;;5090184;28;19931;-67
2022/06/05 14:31:56;;;;;;;;;;;18.40;99.90;;;;;;5084455;28;19978;-67
2022/06/05 14:34:23;;;;;;;;;;;18.50;99.90;;;;;;5078396;28;20015;-67
2022/06/05 14:36:51;;;;;;;;;;;18.50;99.90;;;;;;5072391;28;20313;-67
2022/06/05 14:39:22;;;;;;;;;;;18.50;99.90;;;;;;5078651;28;19925;-68
2022/06/05 14:41:55;;;;;;;;;;;18.50;99.90;;;;;;5077624;28;20214;-67
2022/06/05 14:44:24;;;;;;;;;;;18.80;99.90;;;;;;5079838;28;20040;-68
2022/06/05 14:46:57;;;;;;;;;;;18.90;99.90;;;;;;5073131;28;19971;-68